createdAt,value
2019-03-29T00:00:34.426Z,64.10
2019-03-29T00:03:04.493Z,65.12
2019-03-29T00:05:34.712Z,70.80
2019-03-29T00:08:04.874Z,61.63
2019-03-29T00:10:35.202Z,65.97
2019-03-29T00:13:05.321Z,64.12
2019-03-29T00:15:35.533Z,62.53
2019-03-29T00:18:05.549Z,62.63
2019-03-29T00:20:35.572Z,63.90
2019-03-29T00:23:05.733Z,58.45
2019-03-29T00:25:35.729Z,71.37
2019-03-29T00:28:05.759Z,64.82
2019-03-29T00:30:35.789Z,64.17
2019-03-29T00:33:05.836Z,61.75
2019-03-29T00:35:35.959Z,58.98
2019-03-29T00:38:06.031Z,68.78
2019-03-29T00:40:36.133Z,61.60
2019-03-29T00:43:06.236Z,64.53
2019-03-29T00:45:36.485Z,57.95
2019-03-29T00:48:06.620Z,68.63
2019-03-29T00:50:36.669Z,69.40
2019-03-29T00:53:06.648Z,61.55
2019-03-29T00:55:36.749Z,66.33
2019-03-29T00:58:06.725Z,66.65
2019-03-29T01:00:36.819Z,62.87
2019-03-29T01:03:06.907Z,61.65
2019-03-29T01:05:37.033Z,66.02
2019-03-29T01:08:10.031Z,62.05
2019-03-29T01:10:39.005Z,60.40
2019-03-29T01:13:09.024Z,72.58
2019-03-29T01:15:39.154Z,75.05
2019-03-29T01:18:09.123Z,64.00
2019-03-29T01:20:39.294Z,60.73
2019-03-29T01:23:09.377Z,63.38
2019-03-29T01:25:39.385Z,67.15
2019-03-29T01:28:11.891Z,68.52
2019-03-29T01:30:42.090Z,71.62
2019-03-29T01:33:12.176Z,63.15
2019-03-29T01:35:42.363Z,58.07
2019-03-29T01:38:21.751Z,60.25
2019-03-29T01:40:44.029Z,66.92
2019-03-29T01:43:14.018Z,67.37
2019-03-29T01:45:44.190Z,64.35
2019-03-29T01:48:14.314Z,67.35
2019-03-29T01:50:44.542Z,61.45
2019-03-29T01:53:14.618Z,62.80
2019-03-29T01:55:44.628Z,68.78
2019-03-29T01:58:15.118Z,66.05
2019-03-29T02:00:45.204Z,63.23
2019-03-29T02:03:15.225Z,63.48
2019-03-29T02:05:45.234Z,64.90
2019-03-29T02:08:15.360Z,63.52
2019-03-29T02:10:45.356Z,60.97
2019-03-29T02:13:15.412Z,66.20
2019-03-29T02:15:45.434Z,58.60
2019-03-29T02:18:15.364Z,61.77
2019-03-29T02:20:45.567Z,63.58
2019-03-29T02:23:15.694Z,62.50
2019-03-29T02:25:45.899Z,67.12
2019-03-29T02:28:16.105Z,77.82
2019-03-29T02:30:46.148Z,78.25
2019-03-29T02:33:16.285Z,66.85
2019-03-29T02:35:46.594Z,65.28
2019-03-29T02:38:16.689Z,58.10
2019-03-29T02:40:46.815Z,55.08
2019-03-29T02:43:17.202Z,53.98
2019-03-29T02:45:47.306Z,56.08
2019-03-29T02:48:17.456Z,56.35
2019-03-29T02:50:47.873Z,60.40
2019-03-29T02:53:17.924Z,62.95
2019-03-29T02:55:47.991Z,66.55
2019-03-29T02:58:18.055Z,56.23
2019-03-29T03:00:48.381Z,58.23
2019-03-29T03:03:18.665Z,70.13
2019-03-29T03:05:48.682Z,84.42
2019-03-29T03:08:18.756Z,66.00
2019-03-29T03:10:48.916Z,66.92
2019-03-29T03:13:19.436Z,73.57
2019-03-29T03:15:49.455Z,70.03
2019-03-29T03:18:19.605Z,71.57
2019-03-29T03:20:49.598Z,66.07
2019-03-29T03:23:19.895Z,70.50
2019-03-29T03:25:49.983Z,65.40
2019-03-29T03:28:20.181Z,64.30
2019-03-29T03:30:50.425Z,75.60
2019-03-29T03:33:20.679Z,67.30
2019-03-29T03:35:50.728Z,67.42
2019-03-29T03:38:20.997Z,74.53
2019-03-29T03:40:51.186Z,67.25
2019-03-29T03:43:21.228Z,68.25
2019-03-29T03:45:51.189Z,77.72
2019-03-29T03:48:21.222Z,76.75
2019-03-29T03:50:52.154Z,64.70
2019-03-29T03:53:22.232Z,65.62
2019-03-29T03:55:53.790Z,64.47
2019-03-29T03:58:24.512Z,72.30
2019-03-29T04:00:58.918Z,74.72
2019-03-29T04:03:29.172Z,72.27
2019-03-29T04:05:59.482Z,83.12
2019-03-29T04:08:29.583Z,78.30
2019-03-29T04:10:59.757Z,78.17
2019-03-29T04:13:29.833Z,88.90
2019-03-29T04:15:59.877Z,89.97
2019-03-29T04:18:29.969Z,86.53
2019-03-29T04:21:00.136Z,77.95
2019-03-29T04:23:30.341Z,86.50
2019-03-29T04:26:00.417Z,94.67
2019-03-29T04:28:30.473Z,90.75
2019-03-29T04:31:00.770Z,84.70
2019-03-29T04:33:30.777Z,92.37
2019-03-29T04:36:00.774Z,89.40
2019-03-29T04:38:31.046Z,87.65
2019-03-29T04:41:01.155Z,98.50
2019-03-29T04:43:31.241Z,99.55
2019-03-29T04:46:01.235Z,84.67
2019-03-29T04:48:31.366Z,83.22
2019-03-29T04:51:01.590Z,104.50
2019-03-29T04:53:31.926Z,93.35
2019-03-29T04:56:02.055Z,105.40
2019-03-29T04:58:32.256Z,116.70
2019-03-29T05:01:02.506Z,98.72
2019-03-29T05:03:32.590Z,85.57
2019-03-29T05:06:02.632Z,77.45
2019-03-29T05:08:32.668Z,86.05
2019-03-29T05:11:02.681Z,87.82
2019-03-29T05:13:32.712Z,68.83
2019-03-29T05:29:58.846Z,59.83
2019-03-29T05:32:29.041Z,62.27
2019-03-29T05:34:59.209Z,62.60
2019-03-29T05:37:29.272Z,59.88
2019-03-29T05:39:59.280Z,63.83
2019-03-29T05:42:29.440Z,62.53
2019-03-29T05:44:59.639Z,55.00
2019-03-29T05:47:30.196Z,54.42
2019-03-29T05:49:59.328Z,55.45
2019-03-29T05:52:29.450Z,54.95
2019-03-29T05:54:59.477Z,50.38
2019-03-29T05:57:29.458Z,49.85
2019-03-29T05:59:59.815Z,49.18
2019-03-29T06:02:29.922Z,50.08
2019-03-29T06:04:59.929Z,47.67
2019-03-29T06:07:29.242Z,45.35
2019-03-29T06:09:59.282Z,48.53
2019-03-29T06:12:28.437Z,47.10
2019-03-29T06:14:58.481Z,46.68
2019-03-29T06:17:28.577Z,45.67
2019-03-29T06:19:57.809Z,48.90
2019-03-29T06:22:27.878Z,41.80
2019-03-29T06:24:57.921Z,41.35
2019-03-29T06:27:28.325Z,43.63
2019-03-29T06:29:58.600Z,43.35
2019-03-29T06:32:27.866Z,47.60
2019-03-29T06:34:57.092Z,46.40
2019-03-29T06:37:27.642Z,42.85
2019-03-29T06:39:57.266Z,43.20
2019-03-29T06:42:26.427Z,43.02
2019-03-29T06:44:55.818Z,45.05
2019-03-29T06:47:24.955Z,37.42
2019-03-29T06:49:54.290Z,39.37
2019-03-29T06:52:23.437Z,32.70
2019-03-29T06:54:52.747Z,33.63
2019-03-29T06:57:21.983Z,31.40
2019-03-29T06:59:51.925Z,28.70
2019-03-29T07:02:21.106Z,26.40
2019-03-29T07:04:51.330Z,26.52
2019-03-29T07:07:21.579Z,24.18
2019-03-29T07:09:50.907Z,29.17
2019-03-29T07:12:20.061Z,33.18
2019-03-29T07:14:49.297Z,32.40
2019-03-29T07:17:18.493Z,26.90
2019-03-29T07:19:47.837Z,25.53
2019-03-29T07:22:17.027Z,26.23
2019-03-29T07:24:46.208Z,28.23
2019-03-29T07:27:15.405Z,28.92
2019-03-29T07:29:51.441Z,26.93
2019-03-29T07:32:20.633Z,28.02
2019-03-29T07:34:49.973Z,25.82
2019-03-29T07:37:19.168Z,28.98
2019-03-29T07:39:48.358Z,24.93
2019-03-29T07:42:17.506Z,26.15
2019-03-29T07:44:46.768Z,25.40
2019-03-29T07:47:15.991Z,26.93
2019-03-29T07:49:45.277Z,27.27
2019-03-29T07:52:14.487Z,25.75
2019-03-29T07:54:43.843Z,27.20
2019-03-29T07:57:13.010Z,28.80
2019-03-29T07:59:42.166Z,26.23
2019-03-29T08:02:11.467Z,25.57
2019-03-29T08:04:40.648Z,23.87
2019-03-29T08:07:10.490Z,24.63
2019-03-29T08:09:42.007Z,24.52
2019-03-29T08:12:11.136Z,22.75
2019-03-29T08:14:40.429Z,22.32
2019-03-29T08:17:12.182Z,21.80
2019-03-29T08:19:41.380Z,19.73
2019-03-29T08:22:10.667Z,20.10
2019-03-29T08:24:39.828Z,19.40
2019-03-29T08:27:09.040Z,25.30
2019-03-29T08:29:38.295Z,22.77
2019-03-29T08:32:07.549Z,16.67
2019-03-29T08:34:36.762Z,23.30
2019-03-29T08:37:06.114Z,19.32
2019-03-29T08:39:35.362Z,17.80
2019-03-29T08:42:04.547Z,20.15
2019-03-29T08:44:34.796Z,21.33
2019-03-29T08:47:04.258Z,16.50
2019-03-29T08:49:34.482Z,20.82
2019-03-29T08:52:03.639Z,19.45
2019-03-29T08:54:33.704Z,17.32
2019-03-29T08:57:02.970Z,16.75
2019-03-29T08:59:32.196Z,14.93
2019-03-29T09:02:01.450Z,17.30
2019-03-29T09:04:30.648Z,18.25
2019-03-29T09:06:59.878Z,23.60
2019-03-29T09:09:31.196Z,20.95
2019-03-29T09:12:13.722Z,18.45
2019-03-29T09:14:32.181Z,16.17
2019-03-29T09:17:02.172Z,17.37
2019-03-29T09:19:31.552Z,14.53
2019-03-29T09:22:00.699Z,15.40
2019-03-29T09:24:29.991Z,13.30
2019-03-29T09:26:59.187Z,17.80
2019-03-29T09:29:28.448Z,16.65
2019-03-29T09:31:59.664Z,18.10
2019-03-29T09:34:29.829Z,15.43
2019-03-29T09:37:00.390Z,15.75
2019-03-29T09:39:30.549Z,15.95
2019-03-29T09:42:01.268Z,16.67
2019-03-29T09:44:31.334Z,15.65
2019-03-29T09:47:01.326Z,13.53
2019-03-29T09:49:31.340Z,15.60
2019-03-29T09:52:01.409Z,14.05
2019-03-29T09:54:31.495Z,13.38
2019-03-29T09:57:01.931Z,12.10
2019-03-29T09:59:31.919Z,13.68
2019-03-29T10:02:02.017Z,12.73
2019-03-29T10:04:32.229Z,11.05
2019-03-29T10:07:02.630Z,11.65
2019-03-29T10:09:32.707Z,12.73
2019-03-29T10:12:02.912Z,12.05
2019-03-29T10:14:33.641Z,13.83
2019-03-29T10:17:03.761Z,13.18
2019-03-29T10:19:33.789Z,10.45
2019-03-29T10:22:04.025Z,14.85
2019-03-29T10:24:34.127Z,10.50
2019-03-29T10:27:03.233Z,9.93
2019-03-29T10:29:33.328Z,9.83
2019-03-29T10:32:07.545Z,9.95
2019-03-29T10:34:37.505Z,8.18
2019-03-29T10:37:06.995Z,9.50
2019-03-29T10:39:37.003Z,8.28
2019-03-29T10:42:08.808Z,7.50
2019-03-29T10:44:38.830Z,9.38
2019-03-29T10:47:09.774Z,9.35
2019-03-29T10:49:39.784Z,9.17
2019-03-29T10:52:09.922Z,10.38
2019-03-29T10:54:40.048Z,8.68
2019-03-29T10:57:10.435Z,9.55
2019-03-29T10:59:39.690Z,10.43
2019-03-29T11:02:09.012Z,11.48
2019-03-29T11:04:38.168Z,11.30
2019-03-29T11:07:07.823Z,9.17
2019-03-29T11:09:37.340Z,9.45
2019-03-29T11:12:06.559Z,8.13
2019-03-29T11:14:35.818Z,14.38
2019-03-29T11:17:04.985Z,18.73
2019-03-29T11:19:34.425Z,14.18
2019-03-29T11:22:03.773Z,17.15
2019-03-29T11:24:32.985Z,14.53
2019-03-29T11:27:02.132Z,17.85
2019-03-29T11:29:31.324Z,15.55
2019-03-29T11:32:00.548Z,15.30
2019-03-29T11:34:29.739Z,13.30
2019-03-29T11:36:58.901Z,17.15
2019-03-29T11:39:28.087Z,15.10
2019-03-29T11:41:57.419Z,19.17
2019-03-29T11:44:28.745Z,16.57
2019-03-29T11:46:57.422Z,15.10
2019-03-29T11:49:26.714Z,17.60
2019-03-29T11:51:55.936Z,17.75
2019-03-29T11:54:25.100Z,18.40
2019-03-29T11:56:54.349Z,19.35
2019-03-29T11:59:23.566Z,14.95
2019-03-29T12:01:52.802Z,15.93
2019-03-29T12:04:22.019Z,18.10
2019-03-29T12:06:51.201Z,19.20
2019-03-29T12:09:20.463Z,16.90
2019-03-29T12:11:49.720Z,17.40
2019-03-29T12:14:18.918Z,19.30
2019-03-29T12:16:48.108Z,16.35
2019-03-29T12:19:17.388Z,20.10
2019-03-29T12:21:46.610Z,20.87
2019-03-29T12:24:15.811Z,18.02
2019-03-29T12:26:45.056Z,13.00
2019-03-29T12:29:14.222Z,26.37
2019-03-29T12:31:43.441Z,18.95
2019-03-29T12:34:12.914Z,16.80
2019-03-29T12:36:42.089Z,21.12
2019-03-29T12:39:11.362Z,20.48
2019-03-29T12:41:40.524Z,19.02
2019-03-29T12:44:09.639Z,23.10
2019-03-29T12:46:38.857Z,17.02
2019-03-29T12:49:08.082Z,21.90
2019-03-29T12:51:37.568Z,22.70
2019-03-29T12:54:06.696Z,14.87
2019-03-29T12:56:35.877Z,14.43
2019-03-29T12:59:05.399Z,10.38
2019-03-29T13:01:39.826Z,11.33
2019-03-29T13:04:09.500Z,9.47
2019-03-29T13:06:38.110Z,8.98
2019-03-29T13:09:08.502Z,9.55
2019-03-29T13:11:38.539Z,8.67
2019-03-29T13:14:10.464Z,10.03
2019-03-29T13:16:40.150Z,8.90
2019-03-29T13:19:10.391Z,8.78
2019-03-29T13:21:41.226Z,8.58
2019-03-29T13:24:11.294Z,10.78
2019-03-29T13:26:40.557Z,9.15
2019-03-29T13:29:10.539Z,10.43
2019-03-29T13:31:40.477Z,9.23
2019-03-29T13:34:10.516Z,11.53
2019-03-29T13:36:39.693Z,9.83
2019-03-29T13:39:09.167Z,12.00
2019-03-29T13:41:40.115Z,9.70
2019-03-29T13:44:22.935Z,13.18
2019-03-29T13:46:40.219Z,10.10
2019-03-29T13:52:35.315Z,9.88
2019-03-29T13:55:04.571Z,10.85
2019-03-29T13:57:33.986Z,10.08
2019-03-29T14:00:03.207Z,11.97
2019-03-29T14:02:32.371Z,11.65
2019-03-29T14:05:01.537Z,8.83
2019-03-29T14:07:30.678Z,10.05
2019-03-29T14:10:00.340Z,10.75
2019-03-29T14:12:29.566Z,11.35
2019-03-29T14:15:01.183Z,11.63
2019-03-29T14:17:29.647Z,10.55
2019-03-29T14:19:58.935Z,9.53
2019-03-29T14:22:28.066Z,12.35
2019-03-29T14:24:57.224Z,9.33
2019-03-29T14:27:26.402Z,11.33
2019-03-29T14:30:04.255Z,13.25
2019-03-29T14:32:27.148Z,13.23
2019-03-29T14:34:56.317Z,12.03
2019-03-29T14:37:25.502Z,15.72
2019-03-29T14:39:54.710Z,13.30
2019-03-29T14:42:23.991Z,12.40
2019-03-29T14:44:53.367Z,16.62
2019-03-29T14:47:22.470Z,11.93
2019-03-29T14:49:51.615Z,11.85
2019-03-29T14:52:20.806Z,11.57
2019-03-29T14:54:50.011Z,11.45
2019-03-29T14:57:19.164Z,11.25
2019-03-29T14:59:48.366Z,13.08
2019-03-29T15:02:17.579Z,12.68
2019-03-29T15:04:46.840Z,12.10
2019-03-29T15:07:16.650Z,12.30
2019-03-29T15:09:46.177Z,13.88
2019-03-29T15:12:15.465Z,14.85
2019-03-29T15:14:44.621Z,12.37
2019-03-29T15:17:13.930Z,12.45
2019-03-29T15:19:43.124Z,12.77
2019-03-29T15:22:12.357Z,14.00
2019-03-29T15:24:41.494Z,12.60
2019-03-29T15:27:10.700Z,13.43
2019-03-29T15:29:39.851Z,14.40
2019-03-29T15:32:09.176Z,9.70
2019-03-29T15:34:39.299Z,11.97
2019-03-29T15:37:10.064Z,11.35
2019-03-29T15:39:39.645Z,12.28
2019-03-29T15:42:09.204Z,11.90
2019-03-29T15:44:38.421Z,11.10
2019-03-29T15:47:07.561Z,12.70
2019-03-29T15:49:36.709Z,16.73
2019-03-29T15:52:05.938Z,11.50
2019-03-29T15:54:35.094Z,15.68
2019-03-29T15:57:04.404Z,13.55
2019-03-29T15:59:33.601Z,10.77
2019-03-29T16:02:02.831Z,11.35
2019-03-29T16:04:31.995Z,15.55
2019-03-29T16:07:01.184Z,12.37
2019-03-29T16:09:30.502Z,14.17
2019-03-29T16:11:59.696Z,11.80
2019-03-29T16:14:28.961Z,15.60
2019-03-29T16:16:58.110Z,16.73
2019-03-29T16:19:27.407Z,15.40
2019-03-29T16:21:56.599Z,15.45
2019-03-29T16:24:25.750Z,14.80
2019-03-29T16:26:54.917Z,15.28
2019-03-29T16:29:24.567Z,14.93
2019-03-29T16:31:54.322Z,15.57
2019-03-29T16:34:23.487Z,16.25
2019-03-29T16:36:52.825Z,15.18
2019-03-29T16:39:22.336Z,18.02
2019-03-29T16:41:51.515Z,18.00
2019-03-29T16:44:20.768Z,16.75
2019-03-29T16:46:49.884Z,23.30
2019-03-29T16:49:19.062Z,22.97
2019-03-29T16:51:48.272Z,19.52
2019-03-29T16:54:17.504Z,16.67
2019-03-29T16:56:46.732Z,25.92
2019-03-29T16:59:15.960Z,21.30
2019-03-29T17:01:45.173Z,20.60
2019-03-29T17:04:14.382Z,24.47
2019-03-29T17:06:43.730Z,18.35
2019-03-29T17:09:12.927Z,18.87
2019-03-29T17:11:42.074Z,23.85
2019-03-29T17:14:11.266Z,25.00
2019-03-29T17:16:40.474Z,22.65
2019-03-29T17:19:09.620Z,29.82
2019-03-29T17:21:38.861Z,23.22
2019-03-29T17:24:08.037Z,25.25
2019-03-29T17:26:37.346Z,28.13
2019-03-29T17:29:06.473Z,22.80
2019-03-29T17:31:35.828Z,23.38
2019-03-29T17:34:05.047Z,25.43
2019-03-29T17:36:34.279Z,28.55
2019-03-29T17:39:04.045Z,28.80
2019-03-29T17:41:33.293Z,30.70
2019-03-29T17:44:02.632Z,30.85
2019-03-29T17:46:32.149Z,31.70
2019-03-29T17:49:01.392Z,31.02
2019-03-29T17:51:30.613Z,30.80
2019-03-29T17:53:59.818Z,30.88
2019-03-29T17:56:29.038Z,28.17
2019-03-29T17:58:58.292Z,30.50
2019-03-29T18:01:27.503Z,28.65
2019-03-29T18:03:56.634Z,30.72
2019-03-29T18:06:25.833Z,29.20
2019-03-29T18:08:55.356Z,30.12
2019-03-29T18:11:24.572Z,30.50
2019-03-29T18:13:54.063Z,35.40
2019-03-29T18:16:30.594Z,37.58
2019-03-29T18:18:54.623Z,46.25
2019-03-29T18:21:23.874Z,34.03
2019-03-29T18:23:53.069Z,33.80
2019-03-29T18:26:22.533Z,34.38
2019-03-29T18:28:51.759Z,33.95
2019-03-29T18:31:21.199Z,36.42
2019-03-29T18:33:50.415Z,29.37
2019-03-29T18:36:19.631Z,32.20
2019-03-29T18:38:49.509Z,46.93
2019-03-29T18:41:18.723Z,30.95
2019-03-29T18:43:47.991Z,34.77
2019-03-29T18:46:17.775Z,34.25
2019-03-29T18:48:47.083Z,33.98
2019-03-29T18:51:16.364Z,32.48
2019-03-29T18:53:45.616Z,33.90
2019-03-29T18:56:14.889Z,43.98
2019-03-29T18:58:44.083Z,34.58
2019-03-29T19:01:13.239Z,33.92
2019-03-29T19:03:42.452Z,36.33
2019-03-29T19:06:11.726Z,39.58
2019-03-29T19:08:40.861Z,40.93
2019-03-29T19:11:10.106Z,44.70
2019-03-29T19:13:39.268Z,47.58
2019-03-29T19:16:08.656Z,45.35
2019-03-29T19:18:37.884Z,38.75
2019-03-29T19:21:07.245Z,41.80
2019-03-29T19:23:36.395Z,38.75
2019-03-29T19:26:05.965Z,36.65
2019-03-29T19:28:35.203Z,35.35
2019-03-29T19:31:04.475Z,36.70
2019-03-29T19:33:36.725Z,41.13
2019-03-29T19:36:06.251Z,38.57
2019-03-29T19:38:36.802Z,82.02
2019-03-29T19:41:06.033Z,35.52
2019-03-29T19:43:35.215Z,39.25
2019-03-29T19:46:04.575Z,41.80
2019-03-29T19:48:33.737Z,40.70
2019-03-29T19:51:02.896Z,41.68
2019-03-29T19:53:34.315Z,40.80
2019-03-29T19:56:02.908Z,48.50
2019-03-29T19:58:32.254Z,40.40
2019-03-29T20:01:01.944Z,39.25
2019-03-29T20:03:31.125Z,37.38
2019-03-29T20:06:00.314Z,33.20
2019-03-29T20:08:29.494Z,37.30
2019-03-29T20:10:58.676Z,33.98
2019-03-29T20:13:27.854Z,47.65
2019-03-29T20:15:57.145Z,35.13
2019-03-29T20:18:26.338Z,39.50
2019-03-29T20:20:55.560Z,35.73
2019-03-29T20:23:24.784Z,48.73
2019-03-29T20:25:53.979Z,36.95
2019-03-29T20:28:23.117Z,37.98
2019-03-29T20:30:52.328Z,36.65
2019-03-29T20:33:21.612Z,32.83
2019-03-29T20:35:50.774Z,35.52
2019-03-29T20:38:20.089Z,34.92
2019-03-29T20:40:49.242Z,35.10
2019-03-29T20:43:18.396Z,33.80
2019-03-29T20:45:47.615Z,35.20
2019-03-29T20:48:16.809Z,35.25
2019-03-29T20:50:46.031Z,35.92
2019-03-29T20:53:15.206Z,39.03
2019-03-29T20:55:44.467Z,30.62
2019-03-29T20:58:13.642Z,30.45
2019-03-29T21:00:43.582Z,29.70
2019-03-29T21:03:12.884Z,29.82
2019-03-29T21:05:42.118Z,30.27
2019-03-29T21:08:11.367Z,25.85
2019-03-29T21:10:54.604Z,27.62
2019-03-29T21:13:11.673Z,28.35
2019-03-29T21:15:40.970Z,27.95
2019-03-29T21:18:10.216Z,28.62
2019-03-29T21:20:39.376Z,30.10
2019-03-29T21:23:08.632Z,29.52
2019-03-29T21:25:37.831Z,30.17
2019-03-29T21:28:07.050Z,38.15
2019-03-29T21:30:36.202Z,33.48
2019-03-29T21:33:05.518Z,33.78
2019-03-29T21:35:34.719Z,31.40
2019-03-29T21:38:03.928Z,34.88
2019-03-29T21:40:33.190Z,40.17
2019-03-29T21:43:02.403Z,40.83
2019-03-29T21:45:31.582Z,39.70
2019-03-29T21:48:08.811Z,41.53
2019-03-29T21:50:33.472Z,45.03
2019-03-29T21:53:02.639Z,43.90
2019-03-29T21:55:31.861Z,44.88
2019-03-29T21:58:01.063Z,44.65
2019-03-29T22:00:30.232Z,50.80
2019-03-29T22:02:59.380Z,44.65
2019-03-29T22:05:28.762Z,43.50
2019-03-29T22:07:57.976Z,46.37
2019-03-29T22:10:27.183Z,49.57
2019-03-29T22:12:56.358Z,42.38
2019-03-29T22:15:26.456Z,42.17
2019-03-29T22:17:55.681Z,37.88
2019-03-29T22:20:24.857Z,44.15
2019-03-29T22:22:54.161Z,44.33
2019-03-29T22:25:23.328Z,43.05
2019-03-29T22:27:52.550Z,37.65
2019-03-29T22:30:21.809Z,37.10
2019-03-29T22:32:51.024Z,54.58
2019-03-29T22:35:20.391Z,40.52
2019-03-29T22:37:49.693Z,53.58
2019-03-29T22:40:18.877Z,43.17
2019-03-29T22:42:48.065Z,40.78
2019-03-29T22:45:17.216Z,46.75
2019-03-29T22:47:46.470Z,51.65
2019-03-29T22:50:15.689Z,46.20
2019-03-29T22:52:44.859Z,47.53
2019-03-29T22:55:14.074Z,46.63
2019-03-29T22:57:43.253Z,48.00
2019-03-29T23:00:19.502Z,45.03
2019-03-29T23:02:48.621Z,47.85
2019-03-29T23:05:17.816Z,47.67
2019-03-29T23:07:47.249Z,47.35
2019-03-29T23:10:16.420Z,42.90
2019-03-29T23:12:45.567Z,44.80
2019-03-29T23:15:14.743Z,42.03
2019-03-29T23:17:43.908Z,43.42
2019-03-29T23:20:13.320Z,51.07
2019-03-29T23:22:42.886Z,39.98
2019-03-29T23:25:12.125Z,34.43
2019-03-29T23:27:41.438Z,34.33
2019-03-29T23:30:10.912Z,34.80
2019-03-29T23:32:40.096Z,34.90
2019-03-29T23:35:09.326Z,33.78
2019-03-29T23:37:39.184Z,31.55
2019-03-29T23:40:08.375Z,33.38
2019-03-29T23:42:38.201Z,33.60
2019-03-29T23:45:07.372Z,33.20
2019-03-29T23:47:37.091Z,31.17
2019-03-29T23:50:06.304Z,30.55
2019-03-29T23:52:35.530Z,32.73
2019-03-29T23:55:06.122Z,30.68
2019-03-29T23:57:35.367Z,29.90
